Huntington, IN

9:54 AM EST on February 06, 2016 (GMT -0500)
Carlisle Crossing | | Change Station
CLOSE
Current Station
Personal Weather Station
Location: Huntington, IN
Elevation: 820 ft
Nearby Weather Stations

Elev 820 ft 40.91 °N, 85.51 °W | Updated 32 seconds ago

Clear
Clear
26.6 °F
Feels Like 19 °F
N
7.3
Wind Variable Wind from South

Today
High -- | Low -- °F
--% Chance of Precip.
Yesterday
High -- | Low -- °F
Precip. -- in
Pressure 30.37 in
Visibility 3.0 miles
Clouds Scattered Clouds 25000 ft
Windchill 19 °F
Dew Point 26 °F
Humidity 97%
Rainfall 0.00 in
Snow Depth Not available.
7:47 AM 6:04 PM
Waning Crescent, 5% visible
METAR KFWA 061354Z 23004KT 3SM BR SCT250 M04/M05 A3034 RMK AO2 SLP283 T10391050
Pressure 30.37 in
Visibility 3.0 miles
Clouds Scattered Clouds 25000 ft
Windchill 19 °F
Dew Point 26 °F
Humidity 97%
Rainfall 0.00 in
Snow Depth Not available.
7:47 AM 6:04 PM
Waning Crescent, 5% visible
METAR KFWA 061354Z 23004KT 3SM BR SCT250 M04/M05 A3034 RMK AO2 SLP283 T10391050

10-Day Weather Forecast

Almanac

Astronomy

Feb. 06, 2016 Rise Set
Actual Time
Civil Twilight
Nautical Twilight
Astronomical Twilight
Moon
Length of Visible Light
Length of Day
Tomorrow will be .
, % of the Moon is Illuminated

Today's Extremes

State Highs State Lows

Community

WunderPhotos

Upload Photos

1,890,983 photos uploaded!

WunderBlog® & News

Nearby

Air Quality

  Air Quality AQ Index Pollutant
Not available.

Snow Depth

Station Depth Elevation

Earthquake Activity

City Distance Mag. Time & Date
Minimum magnitude displayed is 2.5.

Coastal Water Temperatures

Place Temperature

Stations

Nearby Weather Stations

Station Location Temp. Windchill Dew Point Humidity Wind Precip. Elev Updated Type
                   

Watches & Warnings

There are currently no watches in effect.